<?xml version="1.0" encoding="utf-8"?>
<gpx xmlns:xsi="http://www.w3.org/2001/XMLSchema-instance" xmlns:xsd="http://www.w3.org/2001/XMLSchema" version="1.1" creator="Shapelink.com" xmlns="http://www.topografix.com/GPX/1/1" xmlns:gpxtpx="http://www.garmin.com/xmlschemas/TrackPointExtension/v1">
  <metadata>
    <name>Övrigt 3.34 km, 2019-07-16</name>
    <desc></desc>
    <author><name>Marian Moron</name></author> 
    <time>2019-07-16T21:01:46Z</time>
  </metadata>
  <trk>
    <name>Övrigt 3.34 km, 2019-07-16</name>
    <trkseg>
      <trkpt lat="51.229930479271" lon="4.458047541581">
        <ele>0</ele>
        <time>2019-07-16T21:01:46Z</time>
      </trkpt>
      <trkpt lat="51.229993930254" lon="4.458727900404">
        <ele>18</ele>
        <time>2019-07-16T21:02:29Z</time>
      </trkpt>
      <trkpt lat="51.230136254916" lon="4.458678531013">
        <ele>11</ele>
        <time>2019-07-16T21:02:51Z</time>
      </trkpt>
      <trkpt lat="51.230294840464" lon="4.458700910686">
        <ele>9.2</ele>
        <time>2019-07-16T21:03:11Z</time>
      </trkpt>
      <trkpt lat="51.230367008623" lon="4.458735192657">
        <ele>8.6</ele>
        <time>2019-07-16T21:03:22Z</time>
      </trkpt>
      <trkpt lat="51.230357537076" lon="4.458756398864">
        <ele>7.4</ele>
        <time>2019-07-16T21:04:02Z</time>
      </trkpt>
      <trkpt lat="51.230411013598" lon="4.458823956978">
        <ele>7.8</ele>
        <time>2019-07-16T21:04:16Z</time>
      </trkpt>
      <trkpt lat="51.230422748258" lon="4.458851114334">
        <ele>7.8</ele>
        <time>2019-07-16T21:04:18Z</time>
      </trkpt>
      <trkpt lat="51.230467256147" lon="4.459026128406">
        <ele>8</ele>
        <time>2019-07-16T21:04:35Z</time>
      </trkpt>
      <trkpt lat="51.230515368253" lon="4.459457628618">
        <ele>9</ele>
        <time>2019-07-16T21:05:13Z</time>
      </trkpt>
      <trkpt lat="51.230541938876" lon="4.459603976592">
        <ele>8.8</ele>
        <time>2019-07-16T21:05:32Z</time>
      </trkpt>
      <trkpt lat="51.23077378223" lon="4.45973406368">
        <ele>9</ele>
        <time>2019-07-16T21:06:22Z</time>
      </trkpt>
      <trkpt lat="51.231213748161" lon="4.459603389859">
        <ele>11.4</ele>
        <time>2019-07-16T21:06:57Z</time>
      </trkpt>
      <trkpt lat="51.231199331293" lon="4.459673462543">
        <ele>14</ele>
        <time>2019-07-16T21:07:22Z</time>
      </trkpt>
      <trkpt lat="51.231102185072" lon="4.459696848044">
        <ele>12.6</ele>
        <time>2019-07-16T21:07:30Z</time>
      </trkpt>
      <trkpt lat="51.230652496137" lon="4.459785528546">
        <ele>9.2</ele>
        <time>2019-07-16T21:08:00Z</time>
      </trkpt>
      <trkpt lat="51.230601031271" lon="4.459772368963">
        <ele>7.8</ele>
        <time>2019-07-16T21:08:04Z</time>
      </trkpt>
      <trkpt lat="51.23038067112" lon="4.459143223549">
        <ele>3.4</ele>
        <time>2019-07-16T21:08:34Z</time>
      </trkpt>
      <trkpt lat="51.230355441601" lon="4.458997378489">
        <ele>3.6</ele>
        <time>2019-07-16T21:08:40Z</time>
      </trkpt>
      <trkpt lat="51.2303152923" lon="4.458931664393">
        <ele>2.6</ele>
        <time>2019-07-16T21:08:43Z</time>
      </trkpt>
      <trkpt lat="51.23028008832" lon="4.458813898698">
        <ele>4.2</ele>
        <time>2019-07-16T21:08:47Z</time>
      </trkpt>
      <trkpt lat="51.22993391585" lon="4.458820771856">
        <ele>4.4</ele>
        <time>2019-07-16T21:08:59Z</time>
      </trkpt>
      <trkpt lat="51.229857808198" lon="4.458077129688">
        <ele>6</ele>
        <time>2019-07-16T21:09:15Z</time>
      </trkpt>
      <trkpt lat="51.229822771856" lon="4.457984258236">
        <ele>5.8</ele>
        <time>2019-07-16T21:09:20Z</time>
      </trkpt>
      <trkpt lat="51.229749430231" lon="4.457972355938">
        <ele>4.6</ele>
        <time>2019-07-16T21:09:36Z</time>
      </trkpt>
      <trkpt lat="51.229857975836" lon="4.458074112204">
        <ele>11</ele>
        <time>2019-07-16T21:09:58Z</time>
      </trkpt>
      <trkpt lat="51.229872895618" lon="4.458179305049">
        <ele>14.4</ele>
        <time>2019-07-16T21:10:02Z</time>
      </trkpt>
      <trkpt lat="51.229929976357" lon="4.458308134852">
        <ele>13.6</ele>
        <time>2019-07-16T21:10:09Z</time>
      </trkpt>
      <trkpt lat="51.229997450652" lon="4.458832841792">
        <ele>7.8</ele>
        <time>2019-07-16T21:10:27Z</time>
      </trkpt>
      <trkpt lat="51.230163663729" lon="4.458821107132">
        <ele>7.2</ele>
        <time>2019-07-16T21:10:43Z</time>
      </trkpt>
      <trkpt lat="51.230199454442" lon="4.458833679982">
        <ele>7.8</ele>
        <time>2019-07-16T21:10:45Z</time>
      </trkpt>
      <trkpt lat="51.230517379909" lon="4.459199466098">
        <ele>14.6</ele>
        <time>2019-07-16T21:11:05Z</time>
      </trkpt>
      <trkpt lat="51.230636402889" lon="4.459793994265">
        <ele>11.8</ele>
        <time>2019-07-16T21:11:21Z</time>
      </trkpt>
      <trkpt lat="51.230961201514" lon="4.459630547215">
        <ele>5.6</ele>
        <time>2019-07-16T21:11:50Z</time>
      </trkpt>
      <trkpt lat="51.230996656951" lon="4.459616633261">
        <ele>5.6</ele>
        <time>2019-07-16T21:11:56Z</time>
      </trkpt>
      <trkpt lat="51.231301087559" lon="4.459634821984">
        <ele>6.6</ele>
        <time>2019-07-16T21:12:24Z</time>
      </trkpt>
      <trkpt lat="51.231710124279" lon="4.459630882491">
        <ele>4.6</ele>
        <time>2019-07-16T21:12:52Z</time>
      </trkpt>
      <trkpt lat="51.23194724823" lon="4.460115104854">
        <ele>1.8</ele>
        <time>2019-07-16T21:13:26Z</time>
      </trkpt>
      <trkpt lat="51.232007514091" lon="4.460623886184">
        <ele>4.4</ele>
        <time>2019-07-16T21:13:50Z</time>
      </trkpt>
      <trkpt lat="51.232115640601" lon="4.461316314943">
        <ele>3.8</ele>
        <time>2019-07-16T21:14:24Z</time>
      </trkpt>
      <trkpt lat="51.232168446571" lon="4.461636922618">
        <ele>6.8</ele>
        <time>2019-07-16T21:14:44Z</time>
      </trkpt>
      <trkpt lat="51.232168195114" lon="4.46170129561">
        <ele>7</ele>
        <time>2019-07-16T21:14:47Z</time>
      </trkpt>
      <trkpt lat="51.232249583363" lon="4.462084264621">
        <ele>3.6</ele>
        <time>2019-07-16T21:15:07Z</time>
      </trkpt>
      <trkpt lat="51.232342370996" lon="4.462775519914">
        <ele>7.6</ele>
        <time>2019-07-16T21:15:47Z</time>
      </trkpt>
      <trkpt lat="51.23234035934" lon="4.462817345595">
        <ele>9.6</ele>
        <time>2019-07-16T21:15:50Z</time>
      </trkpt>
      <trkpt lat="51.232451670972" lon="4.46343634891">
        <ele>10.4</ele>
        <time>2019-07-16T21:16:20Z</time>
      </trkpt>
      <trkpt lat="51.232505566589" lon="4.463696355448">
        <ele>12.4</ele>
        <time>2019-07-16T21:16:34Z</time>
      </trkpt>
      <trkpt lat="51.232568849934" lon="4.46389400065">
        <ele>14.2</ele>
        <time>2019-07-16T21:17:02Z</time>
      </trkpt>
      <trkpt lat="51.232575639273" lon="4.463934820503">
        <ele>13.2</ele>
        <time>2019-07-16T21:17:04Z</time>
      </trkpt>
      <trkpt lat="51.232517971801" lon="4.464107487643">
        <ele>13</ele>
        <time>2019-07-16T21:17:12Z</time>
      </trkpt>
      <trkpt lat="51.232501040363" lon="4.46432650669">
        <ele>10.8</ele>
        <time>2019-07-16T21:17:25Z</time>
      </trkpt>
      <trkpt lat="51.232894989663" lon="4.464709894796">
        <ele>1.8</ele>
        <time>2019-07-16T21:18:06Z</time>
      </trkpt>
      <trkpt lat="51.232914854766" lon="4.464743506215">
        <ele>1.6</ele>
        <time>2019-07-16T21:18:08Z</time>
      </trkpt>
      <trkpt lat="51.232924661589" lon="4.464860601358">
        <ele>0</ele>
        <time>2019-07-16T21:18:18Z</time>
      </trkpt>
      <trkpt lat="51.232940922475" lon="4.464886669067">
        <ele>0</ele>
        <time>2019-07-16T21:18:23Z</time>
      </trkpt>
      <trkpt lat="51.23308802482" lon="4.464951628792">
        <ele>0</ele>
        <time>2019-07-16T21:18:36Z</time>
      </trkpt>
      <trkpt lat="51.233128174121" lon="4.464956657932">
        <ele>0</ele>
        <time>2019-07-16T21:18:44Z</time>
      </trkpt>
      <trkpt lat="51.233216519347" lon="4.464734369944">
        <ele>0</ele>
        <time>2019-07-16T21:18:57Z</time>
      </trkpt>
      <trkpt lat="51.23325566282" lon="4.464690197331">
        <ele>0.2</ele>
        <time>2019-07-16T21:19:12Z</time>
      </trkpt>
      <trkpt lat="51.233177627331" lon="4.464858002969">
        <ele>2.4</ele>
        <time>2019-07-16T21:19:23Z</time>
      </trkpt>
      <trkpt lat="51.232920722096" lon="4.465443981598">
        <ele>4.2</ele>
        <time>2019-07-16T21:19:57Z</time>
      </trkpt>
      <trkpt lat="51.232629283433" lon="4.465988888917">
        <ele>4.6</ele>
        <time>2019-07-16T21:20:33Z</time>
      </trkpt>
      <trkpt lat="51.232556109446" lon="4.466227437791">
        <ele>7.6</ele>
        <time>2019-07-16T21:20:48Z</time>
      </trkpt>
      <trkpt lat="51.232259641643" lon="4.466779134449">
        <ele>13.2</ele>
        <time>2019-07-16T21:21:21Z</time>
      </trkpt>
      <trkpt lat="51.232151515133" lon="4.467241312415">
        <ele>6</ele>
        <time>2019-07-16T21:21:46Z</time>
      </trkpt>
      <trkpt lat="51.232253858132" lon="4.467571391637">
        <ele>5.2</ele>
        <time>2019-07-16T21:22:16Z</time>
      </trkpt>
      <trkpt lat="51.232275483434" lon="4.46770105963">
        <ele>3.8</ele>
        <time>2019-07-16T21:22:27Z</time>
      </trkpt>
      <trkpt lat="51.232455526646" lon="4.468353339088">
        <ele>10.6</ele>
        <time>2019-07-16T21:23:13Z</time>
      </trkpt>
      <trkpt lat="51.232419652114" lon="4.468371192535">
        <ele>10.8</ele>
        <time>2019-07-16T21:23:18Z</time>
      </trkpt>
      <trkpt lat="51.232400960477" lon="4.46834562774">
        <ele>9.6</ele>
        <time>2019-07-16T21:23:20Z</time>
      </trkpt>
      <trkpt lat="51.232151682771" lon="4.467741125112">
        <ele>5</ele>
        <time>2019-07-16T21:23:56Z</time>
      </trkpt>
      <trkpt lat="51.232057805491" lon="4.467585640867">
        <ele>4</ele>
        <time>2019-07-16T21:24:10Z</time>
      </trkpt>
      <trkpt lat="51.231900561047" lon="4.467614893698">
        <ele>0</ele>
        <time>2019-07-16T21:24:30Z</time>
      </trkpt>
      <trkpt lat="51.231738119825" lon="4.46790893075">
        <ele>2.2</ele>
        <time>2019-07-16T21:24:52Z</time>
      </trkpt>
      <trkpt lat="51.231485740816" lon="4.468503794193">
        <ele>1.6</ele>
        <time>2019-07-16T21:25:31Z</time>
      </trkpt>
      <trkpt lat="51.231277869696" lon="4.468900425701">
        <ele>0</ele>
        <time>2019-07-16T21:26:15Z</time>
      </trkpt>
      <trkpt lat="51.230906132431" lon="4.469309797697">
        <ele>0.2</ele>
        <time>2019-07-16T21:26:49Z</time>
      </trkpt>
      <trkpt lat="51.230852823547" lon="4.469351707197">
        <ele>0</ele>
        <time>2019-07-16T21:26:56Z</time>
      </trkpt>
      <trkpt lat="51.230435907841" lon="4.469624621861">
        <ele>0</ele>
        <time>2019-07-16T21:27:28Z</time>
      </trkpt>
      <trkpt lat="51.230209512722" lon="4.469797624277">
        <ele>0</ele>
        <time>2019-07-16T21:27:48Z</time>
      </trkpt>
      <trkpt lat="51.230128711206" lon="4.469877671422">
        <ele>0</ele>
        <time>2019-07-16T21:28:00Z</time>
      </trkpt>
      <trkpt lat="51.229799134898" lon="4.470085542542">
        <ele>0</ele>
        <time>2019-07-16T21:28:34Z</time>
      </trkpt>
      <trkpt lat="51.229348691592" lon="4.470197860002">
        <ele>1.2</ele>
        <time>2019-07-16T21:29:15Z</time>
      </trkpt>
      <trkpt lat="51.229129169631" lon="4.470172295207">
        <ele>0</ele>
        <time>2019-07-16T21:29:42Z</time>
      </trkpt>
      <trkpt lat="51.22875122976" lon="4.470100378505">
        <ele>0</ele>
        <time>2019-07-16T21:30:19Z</time>
      </trkpt>
      <trkpt lat="51.228636733006" lon="4.469810113308">
        <ele>0</ele>
        <time>2019-07-16T21:30:46Z</time>
      </trkpt>
      <trkpt lat="51.228600690836" lon="4.469775747518">
        <ele>0</ele>
        <time>2019-07-16T21:30:50Z</time>
      </trkpt>
      <trkpt lat="51.228440512727" lon="4.469431754342">
        <ele>0</ele>
        <time>2019-07-16T21:31:15Z</time>
      </trkpt>
      <trkpt lat="51.228423162194" lon="4.469354389405">
        <ele>0</ele>
        <time>2019-07-16T21:31:22Z</time>
      </trkpt>
      <trkpt lat="51.228368512206" lon="4.469176022573">
        <ele>0</ele>
        <time>2019-07-16T21:31:39Z</time>
      </trkpt>
      <trkpt lat="51.228323920498" lon="4.469117181635">
        <ele>0</ele>
        <time>2019-07-16T21:31:44Z</time>
      </trkpt>
      <trkpt lat="51.228336912443" lon="4.469080888008">
        <ele>0</ele>
        <time>2019-07-16T21:31:47Z</time>
      </trkpt>
      <trkpt lat="51.228326602706" lon="4.46906563295">
        <ele>0</ele>
        <time>2019-07-16T21:31:57Z</time>
      </trkpt>
      <trkpt lat="51.228288297423" lon="4.469010982962">
        <ele>0</ele>
        <time>2019-07-16T21:32:01Z</time>
      </trkpt>
      <trkpt lat="51.228190396831" lon="4.468824988601">
        <ele>4.4</ele>
        <time>2019-07-16T21:32:18Z</time>
      </trkpt>
      <trkpt lat="51.228122922536" lon="4.468594402532">
        <ele>4</ele>
        <time>2019-07-16T21:32:35Z</time>
      </trkpt>
      <trkpt lat="51.228082186502" lon="4.468460124494">
        <ele>1.4</ele>
        <time>2019-07-16T21:32:53Z</time>
      </trkpt>
      <trkpt lat="51.228102386881" lon="4.468391560552">
        <ele>3</ele>
        <time>2019-07-16T21:32:58Z</time>
      </trkpt>
      <trkpt lat="51.228080593941" lon="4.468351997984">
        <ele>2.8</ele>
        <time>2019-07-16T21:33:08Z</time>
      </trkpt>
      <trkpt lat="51.228055196784" lon="4.468248732976">
        <ele>1.4</ele>
        <time>2019-07-16T21:33:16Z</time>
      </trkpt>
      <trkpt lat="51.227978921494" lon="4.467949415327">
        <ele>0</ele>
        <time>2019-07-16T21:33:39Z</time>
      </trkpt>
      <trkpt lat="51.227865346749" lon="4.467839696256">
        <ele>0.2</ele>
        <time>2019-07-16T21:33:48Z</time>
      </trkpt>
      <trkpt lat="51.2276833757" lon="4.467466617887">
        <ele>2.4</ele>
        <time>2019-07-16T21:34:17Z</time>
      </trkpt>
      <trkpt lat="51.227683794795" lon="4.467429150794">
        <ele>2.6</ele>
        <time>2019-07-16T21:34:19Z</time>
      </trkpt>
      <trkpt lat="51.227717825309" lon="4.467064119049">
        <ele>0</ele>
        <time>2019-07-16T21:34:43Z</time>
      </trkpt>
      <trkpt lat="51.227755543859" lon="4.466987424664">
        <ele>0</ele>
        <time>2019-07-16T21:34:51Z</time>
      </trkpt>
      <trkpt lat="51.22780156049" lon="4.466838645939">
        <ele>0</ele>
        <time>2019-07-16T21:35:14Z</time>
      </trkpt>
      <trkpt lat="51.22781245696" lon="4.466788522177">
        <ele>0</ele>
        <time>2019-07-16T21:35:19Z</time>
      </trkpt>
      <trkpt lat="51.227817989014" lon="4.466742421727">
        <ele>0</ele>
        <time>2019-07-16T21:35:22Z</time>
      </trkpt>
      <trkpt lat="51.227844391999" lon="4.466616777046">
        <ele>0</ele>
        <time>2019-07-16T21:35:30Z</time>
      </trkpt>
      <trkpt lat="51.227875907943" lon="4.466576376288">
        <ele>0</ele>
        <time>2019-07-16T21:35:34Z</time>
      </trkpt>
      <trkpt lat="51.228259715144" lon="4.466202878824">
        <ele>0</ele>
        <time>2019-07-16T21:36:10Z</time>
      </trkpt>
      <trkpt lat="51.228516452741" lon="4.465852347766">
        <ele>0</ele>
        <time>2019-07-16T21:36:37Z</time>
      </trkpt>
      <trkpt lat="51.228667243122" lon="4.465446160892">
        <ele>0</ele>
        <time>2019-07-16T21:37:13Z</time>
      </trkpt>
      <trkpt lat="51.228627680554" lon="4.465420260821">
        <ele>0</ele>
        <time>2019-07-16T21:37:17Z</time>
      </trkpt>
      <trkpt lat="51.228614688609" lon="4.465369801783">
        <ele>0</ele>
        <time>2019-07-16T21:37:23Z</time>
      </trkpt>
      <trkpt lat="51.228605636157" lon="4.465162936491">
        <ele>2.4</ele>
        <time>2019-07-16T21:37:41Z</time>
      </trkpt>
      <trkpt lat="51.228592308936" lon="4.465071154686">
        <ele>3.2</ele>
        <time>2019-07-16T21:37:46Z</time>
      </trkpt>
      <trkpt lat="51.228585938692" lon="4.464832521993">
        <ele>6</ele>
        <time>2019-07-16T21:38:07Z</time>
      </trkpt>
      <trkpt lat="51.228589207633" lon="4.46479756947">
        <ele>5.6</ele>
        <time>2019-07-16T21:38:12Z</time>
      </trkpt>
      <trkpt lat="51.228579903724" lon="4.46451677582">
        <ele>3</ele>
        <time>2019-07-16T21:38:27Z</time>
      </trkpt>
      <trkpt lat="51.228593314764" lon="4.464184098209">
        <ele>2.4</ele>
        <time>2019-07-16T21:39:00Z</time>
      </trkpt>
      <trkpt lat="51.228550147979" lon="4.464024925928">
        <ele>4.6</ele>
        <time>2019-07-16T21:39:19Z</time>
      </trkpt>
      <trkpt lat="51.228486110263" lon="4.463484712473">
        <ele>5.8</ele>
        <time>2019-07-16T21:39:54Z</time>
      </trkpt>
      <trkpt lat="51.228089730212" lon="4.463185562462">
        <ele>0</ele>
        <time>2019-07-16T21:40:37Z</time>
      </trkpt>
      <trkpt lat="51.227937179632" lon="4.462962268646">
        <ele>0</ele>
        <time>2019-07-16T21:40:58Z</time>
      </trkpt>
      <trkpt lat="51.227855120831" lon="4.462315185966">
        <ele>9</ele>
        <time>2019-07-16T21:41:46Z</time>
      </trkpt>
      <trkpt lat="51.227831483873" lon="4.461596773317">
        <ele>5.4</ele>
        <time>2019-07-16T21:42:34Z</time>
      </trkpt>
      <trkpt lat="51.227838021755" lon="4.460975925984">
        <ele>8.4</ele>
        <time>2019-07-16T21:43:15Z</time>
      </trkpt>
      <trkpt lat="51.228011443266" lon="4.460515843493">
        <ele>33.4</ele>
        <time>2019-07-16T21:44:36Z</time>
      </trkpt>
      <trkpt lat="51.228293997115" lon="4.460204036813">
        <ele>19.2</ele>
        <time>2019-07-16T21:45:02Z</time>
      </trkpt>
      <trkpt lat="51.228376223554" lon="4.46006598692">
        <ele>9.4</ele>
        <time>2019-07-16T21:45:09Z</time>
      </trkpt>
      <trkpt lat="51.228440680365" lon="4.459834814118">
        <ele>8.2</ele>
        <time>2019-07-16T21:45:23Z</time>
      </trkpt>
      <trkpt lat="51.228629608391" lon="4.459275909026">
        <ele>4.8</ele>
        <time>2019-07-16T21:46:01Z</time>
      </trkpt>
      <trkpt lat="51.228634637531" lon="4.458817754372">
        <ele>9.6</ele>
        <time>2019-07-16T21:46:41Z</time>
      </trkpt>
      <trkpt lat="51.228598427723" lon="4.458655983702">
        <ele>10.6</ele>
        <time>2019-07-16T21:46:59Z</time>
      </trkpt>
      <trkpt lat="51.228680570343" lon="4.458175533194">
        <ele>0</ele>
        <time>2019-07-16T21:47:30Z</time>
      </trkpt>
      <trkpt lat="51.228956167215" lon="4.458117111351">
        <ele>7.2</ele>
        <time>2019-07-16T21:48:01Z</time>
      </trkpt>
      <trkpt lat="51.229300579486" lon="4.458084170484">
        <ele>20</ele>
        <time>2019-07-16T21:48:34Z</time>
      </trkpt>
      <trkpt lat="51.229370568351" lon="4.458021054777">
        <ele>17.8</ele>
        <time>2019-07-16T21:48:41Z</time>
      </trkpt>
      <trkpt lat="51.229778934519" lon="4.457935559397">
        <ele>13.4</ele>
        <time>2019-07-16T21:49:15Z</time>
      </trkpt>
      <trkpt lat="51.229858730207" lon="4.457966991522">
        <ele>10</ele>
        <time>2019-07-16T21:49:23Z</time>
      </trkpt>
      <trkpt lat="51.229852108506" lon="4.457994567973">
        <ele>10</ele>
        <time>2019-07-16T21:49:25Z</time>
      </trkpt>
      <trkpt lat="51.229786142953" lon="4.458054414739">
        <ele>7.2</ele>
        <time>2019-07-16T21:49:36Z</time>
      </trkpt>
      <trkpt lat="51.22975119043" lon="4.458025329546">
        <ele>10.4</ele>
        <time>2019-07-16T21:50:11Z</time>
      </trkpt>
    </trkseg>
  </trk>
</gpx>